createdAt,value
2019-06-26T00:04:03.030Z,75.50
2019-06-26T00:08:06.561Z,74.64
2019-06-26T00:12:10.569Z,76.23
2019-06-26T00:16:14.160Z,75.42
2019-06-26T00:20:18.067Z,75.43
2019-06-26T00:24:24.315Z,75.60
2019-06-26T00:28:28.061Z,75.48
2019-06-26T00:32:31.686Z,76.23
2019-06-26T00:36:35.244Z,75.65
2019-06-26T00:40:38.744Z,75.39
2019-06-26T00:44:42.309Z,76.08
2019-06-26T00:48:46.148Z,75.74
2019-06-26T00:52:49.885Z,76.74
2019-06-26T00:56:54.077Z,76.77
2019-06-26T01:00:58.003Z,77.26
2019-06-26T01:05:03.483Z,77.95
2019-06-26T01:09:07.146Z,78.08
2019-06-26T01:13:11.982Z,77.35
2019-06-26T01:17:15.485Z,77.83
2019-06-26T01:21:19.037Z,77.93
2019-06-26T01:25:22.979Z,78.56
2019-06-26T01:29:26.474Z,78.59
2019-06-26T01:33:30.422Z,78.75
2019-06-26T01:37:34.127Z,78.31
2019-06-26T01:41:37.652Z,77.08
2019-06-26T01:45:41.247Z,76.58
2019-06-26T01:49:44.740Z,76.98
2019-06-26T01:53:48.244Z,78.44
2019-06-26T01:57:51.777Z,79.51
2019-06-26T02:01:55.279Z,76.57
2019-06-26T02:05:58.783Z,76.72
2019-06-26T02:10:02.323Z,76.40
2019-06-26T02:14:05.927Z,77.21
2019-06-26T02:18:19.904Z,78.83
2019-06-26T02:22:23.489Z,78.72
2019-06-26T02:26:27.143Z,78.67
2019-06-26T02:30:30.636Z,78.44
2019-06-26T02:34:34.639Z,79.22
2019-06-26T02:38:38.141Z,78.83
2019-06-26T02:42:42.005Z,78.95
2019-06-26T02:46:45.709Z,78.65
2019-06-26T02:50:49.177Z,78.98
2019-06-26T02:54:52.672Z,78.54
2019-06-26T02:58:56.169Z,78.57
2019-06-26T03:03:00.067Z,78.81
2019-06-26T03:07:03.564Z,78.22
2019-06-26T03:11:07.074Z,77.40
2019-06-26T03:15:11.184Z,78.10
2019-06-26T03:19:15.035Z,79.03
2019-06-26T03:23:18.681Z,79.35
2019-06-26T03:27:22.247Z,79.08
2019-06-26T03:31:25.804Z,79.18
2019-06-26T03:35:29.585Z,78.14
2019-06-26T03:39:33.200Z,78.54
2019-06-26T03:43:37.023Z,78.66
2019-06-26T03:47:40.564Z,78.69
2019-06-26T03:51:44.120Z,77.90
2019-06-26T03:55:47.627Z,77.80
2019-06-26T03:59:51.565Z,77.86
2019-06-26T04:03:57.352Z,77.08
2019-06-26T04:08:00.281Z,76.86
2019-06-26T04:12:05.529Z,77.06
2019-06-26T04:16:09.084Z,77.63
2019-06-26T04:20:13.174Z,78.45
2019-06-26T04:24:16.691Z,77.82
2019-06-26T04:28:20.210Z,78.48
2019-06-26T04:32:23.865Z,78.83
2019-06-26T04:36:27.444Z,78.21
2019-06-26T04:40:30.929Z,78.29
2019-06-26T04:44:34.813Z,78.81
2019-06-26T04:48:38.319Z,78.58
2019-06-26T04:52:41.889Z,78.31
2019-06-26T04:56:45.645Z,78.42
2019-06-26T05:00:49.258Z,77.63
2019-06-26T05:04:52.824Z,77.47
2019-06-26T05:08:56.701Z,77.30
2019-06-26T05:13:00.535Z,77.59
2019-06-26T05:17:04.035Z,77.74
2019-06-26T05:21:07.533Z,76.42
2019-06-26T05:25:11.725Z,74.72
2019-06-26T05:29:15.243Z,73.84
2019-06-26T05:33:18.734Z,73.37
2019-06-26T05:37:22.515Z,71.76
2019-06-26T05:41:26.124Z,71.76
2019-06-26T05:45:29.963Z,71.47
2019-06-26T05:49:33.461Z,71.07
2019-06-26T05:57:41.891Z,68.43
2019-06-26T06:01:45.074Z,67.65
2019-06-26T06:05:48.720Z,67.75
2019-06-26T06:09:52.433Z,67.22
2019-06-26T06:13:56.290Z,66.60
2019-06-26T06:18:00.277Z,66.61
2019-06-26T06:22:03.904Z,66.67
2019-06-26T06:26:07.392Z,66.33
2019-06-26T06:30:11.327Z,66.32
2019-06-26T06:34:15.184Z,64.27
2019-06-26T06:38:18.964Z,65.37
2019-06-26T06:42:22.795Z,65.90
2019-06-26T06:46:26.468Z,63.38
2019-06-26T06:50:30.332Z,63.28
2019-06-26T06:54:33.931Z,58.75
2019-06-26T06:58:37.764Z,58.77
2019-06-26T07:02:41.267Z,57.43
2019-06-26T07:06:44.956Z,53.07
2019-06-26T07:10:48.750Z,48.25
2019-06-26T07:14:52.220Z,43.71
2019-06-26T07:18:55.109Z,40.24
2019-06-26T07:22:59.227Z,37.34
2019-06-26T07:27:02.727Z,36.22
2019-06-26T07:31:06.224Z,33.55
2019-06-26T07:35:09.968Z,31.99
2019-06-26T07:39:13.460Z,32.33
2019-06-26T07:43:16.952Z,30.29
2019-06-26T07:47:23.481Z,30.52
2019-06-26T07:51:26.149Z,29.33
2019-06-26T07:55:30.035Z,30.18
2019-06-26T07:59:33.695Z,28.78
2019-06-26T08:03:37.164Z,30.67
2019-06-26T08:07:43.720Z,29.01
2019-06-26T08:11:47.216Z,27.93
2019-06-26T08:15:50.752Z,28.40
2019-06-26T08:19:54.369Z,30.58
2019-06-26T08:23:57.902Z,28.45
2019-06-26T08:28:01.408Z,28.99
2019-06-26T08:32:05.069Z,28.30
2019-06-26T08:36:08.911Z,29.51
2019-06-26T08:40:13.638Z,29.52
2019-06-26T08:44:17.586Z,30.14
2019-06-26T08:48:38.468Z,29.21
2019-06-26T08:52:26.652Z,28.47
2019-06-26T08:56:30.236Z,28.59
2019-06-26T09:00:34.054Z,26.77
2019-06-26T09:04:37.545Z,27.73
2019-06-26T09:08:41.050Z,27.35
2019-06-26T09:12:44.547Z,25.91
2019-06-26T09:16:48.047Z,25.19
2019-06-26T09:20:51.846Z,26.19
2019-06-26T09:24:55.371Z,25.77
2019-06-26T09:28:58.856Z,26.61
2019-06-26T09:33:02.777Z,26.71
2019-06-26T09:37:06.730Z,28.39
2019-06-26T09:41:10.216Z,32.02
2019-06-26T09:45:13.947Z,31.76
2019-06-26T09:49:17.426Z,31.12
2019-06-26T09:53:21.153Z,28.37
2019-06-26T09:57:24.660Z,27.01
2019-06-26T10:01:28.510Z,26.02
2019-06-26T10:05:32.023Z,27.51
2019-06-26T10:09:35.523Z,25.39
2019-06-26T10:22:06.834Z,25.55
2019-06-26T10:26:10.291Z,26.28
2019-06-26T10:30:13.968Z,26.02
2019-06-26T10:34:17.851Z,26.65
2019-06-26T10:38:21.340Z,25.14
2019-06-26T10:42:24.845Z,26.87
2019-06-26T10:46:28.868Z,26.01
2019-06-26T10:50:32.629Z,27.45
2019-06-26T10:54:36.119Z,28.85
2019-06-26T10:58:39.919Z,27.32
2019-06-26T11:02:43.661Z,27.17
2019-06-26T11:06:47.152Z,29.19
2019-06-26T11:10:50.650Z,28.08
2019-06-26T11:14:54.138Z,28.24
2019-06-26T11:18:57.627Z,29.82
2019-06-26T11:23:01.635Z,33.60
2019-06-26T11:27:05.226Z,34.56
2019-06-26T11:31:09.019Z,37.13
2019-06-26T11:35:12.860Z,38.86
2019-06-26T11:39:16.328Z,39.99
2019-06-26T11:43:19.875Z,38.37
2019-06-26T11:47:23.388Z,38.23
2019-06-26T11:51:27.250Z,40.49
2019-06-26T11:55:31.016Z,38.68
2019-06-26T11:59:34.786Z,36.03
2019-06-26T12:03:38.534Z,37.92
2019-06-26T12:07:42.097Z,36.79
2019-06-26T12:11:45.924Z,37.28
2019-06-26T12:15:50.381Z,37.35
2019-06-26T12:19:54.162Z,39.80
2019-06-26T12:23:57.989Z,40.70
2019-06-26T12:28:01.901Z,41.02
2019-06-26T12:32:05.505Z,40.64
2019-06-26T12:36:09.003Z,40.61
2019-06-26T12:40:12.839Z,39.14
2019-06-26T12:44:16.608Z,40.55
2019-06-26T12:48:20.211Z,41.32
2019-06-26T12:52:24.151Z,40.51
2019-06-26T12:56:27.609Z,40.65
2019-06-26T13:00:31.127Z,38.87
2019-06-26T13:04:34.613Z,40.29
2019-06-26T13:08:38.098Z,39.16
2019-06-26T13:12:45.671Z,42.41
2019-06-26T13:16:47.183Z,40.06
2019-06-26T13:20:53.292Z,40.06
2019-06-26T13:24:56.154Z,39.70
2019-06-26T13:28:59.660Z,40.19
2019-06-26T13:33:03.101Z,40.48
2019-06-26T13:37:07.499Z,40.69
2019-06-26T13:41:11.102Z,39.59
2019-06-26T13:45:15.604Z,39.40
2019-06-26T13:49:19.480Z,42.05
2019-06-26T13:53:22.991Z,40.79
2019-06-26T13:57:26.530Z,43.39
2019-06-26T14:01:30.288Z,41.94
2019-06-26T14:05:33.761Z,41.78
2019-06-26T14:09:37.273Z,40.96
2019-06-26T14:13:42.060Z,39.15
2019-06-26T14:17:45.867Z,41.34
2019-06-26T14:21:49.632Z,41.92
2019-06-26T14:25:53.166Z,41.32
2019-06-26T14:29:56.922Z,42.01
2019-06-26T14:34:00.717Z,42.33
2019-06-26T14:38:04.280Z,41.82
2019-06-26T14:42:07.763Z,42.18
2019-06-26T14:46:11.527Z,40.68
2019-06-26T14:50:15.752Z,41.00
2019-06-26T14:54:19.418Z,39.42
2019-06-26T14:58:22.918Z,40.93
2019-06-26T15:02:26.404Z,41.75
2019-06-26T15:06:29.900Z,41.95
2019-06-26T15:10:33.402Z,40.81
2019-06-26T15:14:36.887Z,42.61
2019-06-26T15:18:40.762Z,43.39
2019-06-26T15:22:44.588Z,43.44
2019-06-26T15:26:48.328Z,44.00
2019-06-26T15:30:51.806Z,44.48
2019-06-26T15:34:55.343Z,45.94
2019-06-26T15:38:59.358Z,46.51
2019-06-26T15:43:03.161Z,45.69
2019-06-26T15:47:06.640Z,46.83
2019-06-26T15:51:10.416Z,48.17
2019-06-26T15:55:13.980Z,47.89
2019-06-26T15:59:17.935Z,48.98
2019-06-26T16:03:21.522Z,48.61
2019-06-26T16:07:25.108Z,49.64
2019-06-26T16:11:29.084Z,47.08
2019-06-26T16:15:32.990Z,46.94
2019-06-26T16:19:36.678Z,44.52
2019-06-26T16:23:40.254Z,45.00
2019-06-26T16:27:45.993Z,43.92
2019-06-26T16:31:49.825Z,44.04
2019-06-26T16:35:53.408Z,46.36
2019-06-26T16:39:56.986Z,45.09
2019-06-26T16:44:00.473Z,45.60
2019-06-26T16:48:04.054Z,45.20
2019-06-26T16:52:07.512Z,44.46
2019-06-26T16:56:11.395Z,44.90
2019-06-26T17:00:16.314Z,45.51
2019-06-26T17:04:20.804Z,45.96
2019-06-26T17:08:24.321Z,46.86
2019-06-26T17:12:28.209Z,45.48
2019-06-26T17:16:31.733Z,46.83
2019-06-26T17:20:35.533Z,45.66
2019-06-26T17:24:40.419Z,46.25
2019-06-26T17:28:43.983Z,46.11
2019-06-26T17:32:47.468Z,47.39
2019-06-26T17:36:51.538Z,48.95
2019-06-26T17:40:59.332Z,48.95
2019-06-26T17:45:01.299Z,49.33
2019-06-26T17:49:04.951Z,50.61
2019-06-26T17:53:20.973Z,51.10
2019-06-26T17:57:13.791Z,50.30
2019-06-26T18:01:17.270Z,50.11
2019-06-26T18:05:20.762Z,51.47
2019-06-26T18:09:24.241Z,50.96
2019-06-26T18:13:28.048Z,51.57
2019-06-26T18:17:33.007Z,52.46
2019-06-26T18:21:36.813Z,52.10
2019-06-26T18:25:40.744Z,52.75
2019-06-26T18:29:44.214Z,53.54
2019-06-26T18:33:47.737Z,52.79
2019-06-26T18:37:51.218Z,54.04
2019-06-26T18:41:54.682Z,51.46
2019-06-26T18:45:58.179Z,51.02
2019-06-26T18:50:02.057Z,51.76
2019-06-26T18:54:05.916Z,54.31
2019-06-26T18:58:09.437Z,54.06
2019-06-26T19:02:12.916Z,55.21
2019-06-26T19:06:16.771Z,55.28
2019-06-26T19:10:20.677Z,56.38
2019-06-26T19:14:24.183Z,57.36
2019-06-26T19:18:27.700Z,58.32
2019-06-26T19:22:30.515Z,59.11
2019-06-26T19:26:34.216Z,60.15
2019-06-26T19:30:37.775Z,60.50
2019-06-26T19:34:42.367Z,61.49
2019-06-26T19:38:46.104Z,61.30
2019-06-26T19:42:49.633Z,60.93
2019-06-26T19:46:53.493Z,62.33
2019-06-26T19:50:56.983Z,62.41
2019-06-26T19:55:00.769Z,62.48
2019-06-26T19:59:04.598Z,63.14
2019-06-26T20:03:08.232Z,62.84
2019-06-26T20:07:11.083Z,62.81
2019-06-26T20:11:13.842Z,64.93
2019-06-26T20:15:17.514Z,64.35
2019-06-26T20:19:21.013Z,64.02
2019-06-26T20:23:24.518Z,64.11
2019-06-26T20:27:28.107Z,64.07
2019-06-26T20:31:31.586Z,65.35
2019-06-26T20:35:38.715Z,64.77
2019-06-26T20:39:40.424Z,64.30
2019-06-26T20:43:44.300Z,65.11
2019-06-26T20:47:47.882Z,65.49
2019-06-26T20:51:51.381Z,64.39
2019-06-26T20:55:55.169Z,65.44
2019-06-26T20:59:58.764Z,65.91
2019-06-26T21:04:02.298Z,65.60
2019-06-26T21:08:05.865Z,65.98
2019-06-26T21:12:09.478Z,65.93
2019-06-26T21:16:12.958Z,65.38
2019-06-26T21:20:16.512Z,65.91
2019-06-26T21:24:20.371Z,66.07
2019-06-26T21:28:23.864Z,66.58
2019-06-26T21:32:27.695Z,66.49
2019-06-26T21:36:31.525Z,66.56
2019-06-26T21:40:35.294Z,67.68
2019-06-26T21:44:38.839Z,66.73
2019-06-26T21:48:42.680Z,66.12
2019-06-26T21:52:46.181Z,66.00
2019-06-26T21:56:49.804Z,65.51
2019-06-26T22:00:53.611Z,65.66
2019-06-26T22:04:57.433Z,64.95
2019-06-26T22:09:01.199Z,65.76
2019-06-26T22:13:05.173Z,65.58
2019-06-26T22:17:08.649Z,66.73
2019-06-26T22:21:13.095Z,67.18
2019-06-26T22:25:16.875Z,66.98
2019-06-26T22:29:20.533Z,66.70
2019-06-26T22:33:24.024Z,66.77
2019-06-26T22:37:27.881Z,67.76
2019-06-26T22:41:31.804Z,66.96
2019-06-26T22:45:35.627Z,67.07
2019-06-26T22:49:39.178Z,66.24
2019-06-26T22:53:42.656Z,66.40
2019-06-26T22:57:46.586Z,66.70
2019-06-26T23:01:50.085Z,66.64
2019-06-26T23:05:53.567Z,67.32
2019-06-26T23:09:57.405Z,67.16
2019-06-26T23:14:00.899Z,67.70
2019-06-26T23:18:04.379Z,68.44
2019-06-26T23:22:07.866Z,68.48
2019-06-26T23:26:23.507Z,67.22
2019-06-26T23:30:20.174Z,67.43
2019-06-26T23:34:23.667Z,67.74
2019-06-26T23:38:28.130Z,68.01
2019-06-26T23:42:31.645Z,67.06
2019-06-26T23:46:35.389Z,67.23
2019-06-26T23:50:39.191Z,67.63
2019-06-26T23:54:42.667Z,67.48
2019-06-26T23:58:46.558Z,67.17
